weather station
Area: 11014 km2
The highest point: Tok (865 m.s.l.)
Total stations: 48
Stations online: 46
Stations offline: 2
Current weather
13°C

Meteorological map - weather stations in Středočeský

. The meteorological maps show weather information from WARIO weather stations

Weather stations Středočeský

 UpdatesNameStatusTemperatureHumidityWind speedWind direction
15.7.2019 22:59Kolín15.4 °C70.1 %0.7 m/s NE
15.7.2019 22:58Bořanovice12.2 °C70.7 %0.0 m/s SW
15.7.2019 22:59Jílové u Prahy - Borek11.6 °C86.1 %0.0 m/s NE
1.7.2019 13:20Brandýs nad Labem33.1 °C34.6 %1.0 m/s E
15.7.2019 22:58Králův Dvůr14.7 °C79.0 %1.5 m/s NE
15.7.2019 22:58Chotětov13.8 °C79.3 %0.0 m/s E
15.7.2019 22:58Dolní Jirčany12.3 °C92.2 %1.1 m/s SE
15.7.2019 22:58Davle13.8 °C85.7 %0.6 m/s NW
15.7.2019 22:56Holubice13.9 °C79.5 %0.0 m/s W
15.7.2019 22:58Hostín u Vojkovic13.6 °C84.4 %0.6 m/s SW
15.7.2019 22:58Hovorčovice10.6 °C89.7 %0.0 m/s NE
15.7.2019 22:59Sedlčany12.3 °C88.9 %0.0 m/s E
15.7.2019 22:58Mělník14.6 °C77.9 %0.0 m/s NW
15.7.2019 22:58Kojetice14.5 °C74.3 %0.0 m/s SW
15.7.2019 22:58Krásná Hora nad Vltavou14.7 °C74.2 %1.0 m/s N
15.7.2019 22:58Křečhoř °C %0.0 m/s SE
15.7.2019 22:59Květnice12.8 °C86.7 %0.0 m/s W
15.7.2019 22:58Ledečky12.6 °C94.5 %1.1 m/s NW
15.7.2019 22:58Libeř12.8 °C82.2 %0.1 m/s NW
15.7.2019 22:58Malý Újezd11.9 °C98.3 %0.0 m/s NE
15.7.2019 22:58Zdice14.8 °C79.2 %0.8 m/s N
15.7.2019 22:57Mělník13.1 °C82.0 %0.0 m/s NE
15.7.2019 22:58Jince12.9 °C87.6 %0.6 m/s S
15.7.2019 22:58Olešná13.5 °C80.2 %0.8 m/s E
15.7.2019 22:58Srby12.0 °C94.0 %0.0 m/s W
15.7.2019 22:58Kralupy nad Vltavou14.6 °C82.8 %0.0 m/s SW
15.7.2019 22:59Mrač13.4 °C81.4 %0.0 m/s SE
15.7.2019 22:58Velvary15.8 °C66.2 %0.0 m/s E
22.4.2019 16:02Dolní Jirčany-40.0 °C %4.8 m/s E
15.7.2019 22:58Mladá Boleslav14.8 °C82.3 %0.0 m/s E
15.7.2019 22:58Líbeznice13.8 °C85.4 %0.8 m/s W
15.7.2019 22:58Mšecké Žehrovice12.0 °C88.5 %0.0 m/s NE
15.7.2019 22:59Odolena voda14.3 °C76.5 %1.1 m/s E
15.7.2019 22:58Orlov12.9 °C82.5 %0.0 m/s W
15.7.2019 22:58Petrovice12.7 °C86.3 %0.7 m/s SW
15.7.2019 22:59Pátek14.8 °C74.6 %0.0 m/s SW
15.7.2019 22:58Husinec-Řež12.7 °C86.1 %0.6 m/s N
15.7.2019 22:58Semice14.1 °C88.2 %0.0 m/s SE
15.7.2019 22:58Slaný13.2 °C84.7 %0.0 m/s N
15.7.2019 22:58Svojetice12.0 °C87.7 %1.9 m/s N
15.7.2019 22:59Toušice11.6 °C89.2 %0.7 m/s W
15.7.2019 22:58Třebsko12.1 °C87.7 %0.8 m/s NW
15.7.2019 22:58Srby11.9 °C96.0 %0.6 m/s NE
15.7.2019 22:59Vestec12.4 °C93.2 %0.0 m/s S
15.7.2019 22:58Nebřich12.6 °C90.6 %0.0 m/s W
15.7.2019 22:58Vrbčany11.4 °C88.6 %0.0 m/s E
15.7.2019 22:58Všetaty14.4 °C86.4 %0.7 m/s N
15.7.2019 22:58Zibohlavy12.9 °C92.2 %0.8 m/s SW
Email notifications
Enter your email address to subscribe to notifications about news at warioweather.com. Your email address will not be used for any purpose other than sending these emails and will not be provided to any third party. The subscription can be ended at any time.
All data are only indicative. The portal administrator has no responsibility for potentially incorrect data and related consequences. Publishing or further sharing of content from www.warioweather.com is only allowed with written consent from WANET s.r.o.